Time;durP1;ratioP1;P1;durP2;ratioP2;P2;SDS_P1;SDS_P2;PMS_P1;PMS_P2;Temp;Humidity;BMP_temperature;BMP_pressure;BME280_temperature;BME280_humidity;BME280_pressure;Samples;Min_cycle;Max_cycle;Signal;HPM_P1;HPM_P2
2024/03/13 00:00:10;;;;;;;1.42;0.90;;;21.30;52.60;;;;;;5080517;28;20028;-63
2024/03/13 00:02:41;;;;;;;1.83;1.02;;;21.30;52.60;;;;;;5081247;28;20024;-63
2024/03/13 00:05:11;;;;;;;1.50;1.00;;;21.30;52.60;;;;;;5078206;28;20020;-64
2024/03/13 00:07:38;;;;;;;1.45;1.00;;;21.30;52.60;;;;;;5081105;28;20496;-62
2024/03/13 00:10:08;;;;;;;2.38;1.10;;;21.20;52.60;;;;;;5076721;28;20055;-62
2024/03/13 00:12:37;;;;;;;1.27;0.90;;;21.20;52.60;;;;;;5079423;28;20035;-62
2024/03/13 00:15:05;;;;;;;1.33;0.95;;;21.20;52.60;;;;;;5080733;28;20032;-63
2024/03/13 00:17:31;;;;;;;1.60;0.90;;;21.20;52.60;;;;;;5081403;28;20106;-63
2024/03/13 00:19:57;;;;;;;1.67;0.90;;;21.20;52.60;;;;;;5080558;28;20031;-63
2024/03/13 00:22:24;;;;;;;1.55;0.93;;;21.20;52.60;;;;;;5078997;28;20481;-66
2024/03/13 00:24:52;;;;;;;1.85;0.95;;;21.20;53.10;;;;;;5081353;28;20027;-66
2024/03/13 00:27:19;;;;;;;1.52;1.02;;;21.20;52.60;;;;;;5079664;28;20499;-66
2024/03/13 00:29:48;;;;;;;2.53;1.00;;;21.20;53.20;;;;;;5080198;28;20023;-66
2024/03/13 00:32:16;;;;;;;1.65;1.05;;;21.20;52.60;;;;;;5080631;28;20039;-66
2024/03/13 00:34:45;;;;;;;2.03;1.10;;;21.20;52.60;;;;;;5071546;28;20028;-66
2024/03/13 00:37:12;;;;;;;1.55;1.00;;;21.10;52.60;;;;;;5082041;28;20036;-66
2024/03/13 00:39:38;;;;;;;1.42;1.10;;;21.10;52.60;;;;;;5079234;28;20029;-66
2024/03/13 00:42:05;;;;;;;1.50;1.00;;;21.10;52.60;;;;;;5078333;28;20080;-66
2024/03/13 00:44:30;;;;;;;1.17;0.85;;;21.10;52.60;;;;;;5061989;28;20016;-66
2024/03/13 00:46:57;;;;;;;1.42;0.90;;;21.10;52.60;;;;;;5079452;28;20055;-66
2024/03/13 00:49:23;;;;;;;1.70;0.98;;;21.10;52.60;;;;;;5079178;28;20079;-66
2024/03/13 00:51:51;;;;;;;1.00;0.90;;;21.10;52.70;;;;;;5078779;28;20024;-63
2024/03/13 00:54:17;;;;;;;1.77;0.90;;;21.10;52.70;;;;;;5081295;28;20040;-64
2024/03/13 00:56:47;;;;;;;1.25;0.80;;;21.10;52.60;;;;;;5078907;28;20550;-63
2024/03/13 00:59:16;;;;;;;1.55;1.00;;;21.10;52.70;;;;;;5079410;28;20452;-63
2024/03/13 01:01:44;;;;;;;1.58;1.08;;;21.10;52.70;;;;;;5081372;28;20472;-63
2024/03/13 01:04:10;;;;;;;1.30;0.85;;;21.10;52.70;;;;;;5080022;28;20028;-62
2024/03/13 01:06:37;;;;;;;1.63;0.95;;;21.10;52.70;;;;;;5079222;28;20106;-63
2024/03/13 01:09:04;;;;;;;1.52;1.00;;;21.10;52.70;;;;;;5079029;28;20491;-63
2024/03/13 01:11:30;;;;;;;1.23;0.90;;;21.00;52.60;;;;;;5061800;28;20027;-63
2024/03/13 01:13:55;;;;;;;1.20;0.93;;;21.00;52.70;;;;;;5078616;28;20562;-62
2024/03/13 01:16:22;;;;;;;1.20;0.80;;;21.00;52.70;;;;;;5077974;28;20029;-62
2024/03/13 01:18:48;;;;;;;1.35;0.90;;;21.00;52.70;;;;;;5078145;28;20036;-63
2024/03/13 01:21:14;;;;;;;1.08;0.77;;;21.00;52.70;;;;;;5078202;28;20028;-63
2024/03/13 01:23:40;;;;;;;1.35;0.98;;;21.00;52.70;;;;;;5077552;28;20039;-63
2024/03/13 01:26:09;;;;;;;1.40;0.95;;;21.00;52.70;;;;;;5080109;28;20046;-63
2024/03/13 01:28:36;;;;;;;1.50;0.90;;;21.00;52.70;;;;;;5078900;28;20046;-64
2024/03/13 01:31:06;;;;;;;1.67;0.95;;;21.00;52.70;;;;;;5080638;28;20031;-64
2024/03/13 01:33:33;;;;;;;1.48;1.00;;;21.00;52.70;;;;;;5096656;28;20035;-64
2024/03/13 01:35:58;;;;;;;1.23;0.80;;;21.00;52.70;;;;;;5078085;28;20554;-64
2024/03/13 01:38:24;;;;;;;1.80;1.00;;;20.90;52.70;;;;;;5078939;28;20024;-63
2024/03/13 01:58:07;;;;;;;1.35;0.95;;;20.90;52.70;;;;;;5076818;28;20032;-64
2024/03/13 02:03:22;;;;;;;1.20;0.80;;;20.90;52.70;;;;;;5080220;28;20480;-66
2024/03/13 02:05:48;;;;;;;;;;;20.90;52.70;;;;;;5080155;28;20520;-66
2024/03/13 02:08:16;;;;;;;1.30;0.82;;;20.90;52.70;;;;;;5082025;28;19931;-66
2024/03/13 02:10:42;;;;;;;1.27;0.90;;;20.90;52.70;;;;;;5068389;28;20126;-65
2024/03/13 02:13:12;;;;;;;1.25;0.95;;;20.90;52.70;;;;;;5076003;28;20158;-63
2024/03/13 02:15:39;;;;;;;1.17;0.90;;;20.90;52.70;;;;;;5093330;28;20032;-64
2024/03/13 02:18:19;;;;;;;1.40;0.93;;;20.80;52.70;;;;;;5079352;28;20484;-64
2024/03/13 02:20:46;;;;;;;1.13;0.90;;;20.80;52.70;;;;;;5077742;28;20024;-64
2024/03/13 02:23:21;;;;;;;1.20;0.90;;;20.80;52.70;;;;;;5077889;28;20103;-63
2024/03/13 02:25:47;;;;;;;1.30;0.93;;;20.80;52.70;;;;;;5085229;28;20031;-62
2024/03/13 02:28:14;;;;;;;1.25;0.82;;;20.80;52.70;;;;;;5077663;28;20094;-63
2024/03/13 02:30:41;;;;;;;1.38;1.00;;;20.80;52.70;;;;;;5080758;28;20087;-63
2024/03/13 02:33:06;;;;;;;1.23;0.80;;;20.80;53.20;;;;;;5079366;28;20712;-63
2024/03/13 02:35:32;;;;;;;1.10;0.93;;;20.80;52.70;;;;;;5080046;28;20059;-62
2024/03/13 02:37:59;;;;;;;1.33;1.00;;;20.80;52.70;;;;;;5079538;28;20021;-63
2024/03/13 02:40:24;;;;;;;1.23;0.88;;;20.80;52.70;;;;;;5077613;28;20020;-62
2024/03/13 02:42:52;;;;;;;1.65;0.82;;;20.80;52.70;;;;;;5077044;28;20054;-66
2024/03/13 02:45:18;;;;;;;0.90;0.73;;;20.80;52.70;;;;;;5077969;28;20016;-66
2024/03/13 02:47:44;;;;;;;0.93;0.80;;;20.70;52.60;;;;;;5081095;28;20046;-66
2024/03/13 02:50:13;;;;;;;1.17;0.90;;;20.70;52.70;;;;;;5079754;28;20064;-66
2024/03/13 02:52:39;;;;;;;1.20;0.80;;;20.70;52.70;;;;;;5076153;28;20486;-66
2024/03/13 02:55:06;;;;;;;1.05;0.80;;;20.70;52.60;;;;;;5079314;28;20024;-66
2024/03/13 02:57:32;;;;;;;1.33;0.80;;;20.70;52.70;;;;;;5078997;28;20108;-66
2024/03/13 02:59:58;;;;;;;0.73;0.70;;;20.70;52.60;;;;;;5073625;28;20020;-66
2024/03/13 03:02:24;;;;;;;0.70;0.70;;;20.80;52.70;;;;;;5078090;28;20496;-66
2024/03/13 03:04:50;;;;;;;1.17;0.90;;;20.70;52.70;;;;;;5078421;28;20020;-66
2024/03/13 03:07:16;;;;;;;0.88;0.80;;;20.80;52.70;;;;;;5079271;28;20039;-66
2024/03/13 03:09:42;;;;;;;0.77;0.70;;;20.70;52.70;;;;;;5080258;28;20055;-66
2024/03/13 03:12:12;;;;;;;1.58;1.10;;;20.70;52.70;;;;;;5076409;28;20036;-64
2024/03/13 03:14:41;;;;;;;1.42;0.90;;;20.70;52.70;;;;;;5077044;28;20024;-64
2024/03/13 03:17:07;;;;;;;1.35;0.90;;;20.70;52.70;;;;;;5078698;28;20598;-64
2024/03/13 03:19:37;;;;;;;0.90;0.80;;;20.70;52.70;;;;;;5075952;28;20135;-64
2024/03/13 03:22:03;;;;;;;;;;;20.70;52.70;;;;;;5078064;28;20404;-64
2024/03/13 03:24:30;;;;;;;1.35;0.80;;;20.70;52.70;;;;;;5079216;28;20365;-64
2024/03/13 03:26:59;;;;;;;1.08;0.88;;;20.70;52.70;;;;;;5082207;28;20028;-64
2024/03/13 03:29:26;;;;;;;1.13;0.82;;;20.70;52.70;;;;;;5081797;28;20698;-64
2024/03/13 03:31:52;;;;;;;1.25;0.80;;;20.70;52.70;;;;;;5081653;28;20488;-64
2024/03/13 03:34:18;;;;;;;1.38;0.90;;;20.70;52.70;;;;;;5080814;28;20032;-64
2024/03/13 03:36:43;;;;;;;1.33;0.80;;;20.70;52.70;;;;;;5082314;28;20024;-64
2024/03/13 03:39:10;;;;;;;0.85;0.77;;;20.70;52.70;;;;;;5081860;28;20035;-64
2024/03/13 03:41:39;;;;;;;1.20;0.80;;;20.70;52.70;;;;;;5080653;28;20538;-64
2024/03/13 03:44:05;;;;;;;0.88;0.70;;;20.60;52.60;;;;;;5077197;28;20371;-64
2024/03/13 03:46:31;;;;;;;0.98;0.80;;;20.70;52.70;;;;;;5082249;28;20150;-64
2024/03/13 03:48:58;;;;;;;0.82;0.70;;;20.60;52.60;;;;;;5081666;28;20106;-64
2024/03/13 03:51:26;;;;;;;1.00;0.80;;;20.60;52.70;;;;;;5082336;28;20028;-64
2024/03/13 03:53:51;;;;;;;0.68;0.68;;;20.60;52.70;;;;;;5081688;28;20028;-64
2024/03/13 03:56:17;;;;;;;0.80;0.70;;;20.60;52.70;;;;;;5080038;28;20031;-63
2024/03/13 03:58:42;;;;;;;0.80;0.70;;;20.60;52.70;;;;;;5078867;28;20120;-64
2024/03/13 04:01:08;;;;;;;1.23;0.73;;;20.60;52.70;;;;;;5081584;28;20035;-64
2024/03/13 04:03:37;;;;;;;1.23;0.80;;;20.60;52.70;;;;;;5081723;28;20124;-64
2024/03/13 04:06:04;;;;;;;1.35;0.82;;;20.60;52.70;;;;;;5079766;28;20476;-64
2024/03/13 04:08:29;;;;;;;0.85;0.80;;;20.60;52.70;;;;;;5077509;28;20035;-64
2024/03/13 04:10:55;;;;;;;0.82;0.70;;;20.60;52.70;;;;;;5080420;28;20036;-64
2024/03/13 04:13:22;;;;;;;1.13;0.90;;;20.60;52.70;;;;;;5078123;28;20024;-64
2024/03/13 04:15:50;;;;;;;0.95;0.80;;;20.60;52.70;;;;;;5081938;28;20028;-64
2024/03/13 04:18:17;;;;;;;1.48;0.90;;;20.60;52.70;;;;;;5079596;28;20038;-64
2024/03/13 04:20:45;;;;;;;1.60;0.98;;;20.60;52.70;;;;;;5081094;28;20024;-63
2024/03/13 04:23:13;;;;;;;1.25;0.80;;;20.60;52.70;;;;;;5079933;28;20443;-64
2024/03/13 04:25:40;;;;;;;0.77;0.70;;;20.50;52.70;;;;;;5081489;28;20020;-64
2024/03/13 04:28:07;;;;;;;0.80;0.70;;;20.60;52.70;;;;;;5081113;28;20047;-64
2024/03/13 04:30:33;;;;;;;0.88;0.80;;;20.50;52.70;;;;;;5078863;28;20127;-64
2024/03/13 04:33:00;;;;;;;0.90;0.70;;;20.50;52.70;;;;;;5062714;28;20055;-66
2024/03/13 04:35:25;;;;;;;1.08;0.90;;;20.50;52.70;;;;;;5079665;28;20067;-66
2024/03/13 04:37:51;;;;;;;1.00;0.80;;;20.50;52.70;;;;;;5080314;28;20039;-66
2024/03/13 04:40:22;;;;;;;1.25;0.85;;;20.50;52.70;;;;;;5081790;28;20024;-66
2024/03/13 04:42:48;;;;;;;1.10;0.70;;;20.50;52.70;;;;;;5080945;28;20472;-65
2024/03/13 04:45:14;;;;;;;1.10;0.82;;;20.50;52.70;;;;;;5078460;28;20020;-66
2024/03/13 04:47:39;;;;;;;1.05;0.80;;;20.50;52.70;;;;;;5078541;28;20035;-66
2024/03/13 04:50:08;;;;;;;1.05;0.82;;;20.50;52.70;;;;;;5063662;28;20391;-66
2024/03/13 04:52:34;;;;;;;1.40;0.85;;;20.50;52.70;;;;;;5081071;28;20078;-66
2024/03/13 04:54:59;;;;;;;1.23;0.80;;;20.50;52.70;;;;;;5061291;28;20024;-66
2024/03/13 04:57:25;;;;;;;1.20;0.80;;;20.50;52.70;;;;;;5079728;28;20032;-65
2024/03/13 04:59:50;;;;;;;1.13;0.90;;;20.50;52.70;;;;;;5079666;28;20075;-66
2024/03/13 05:02:16;;;;;;;0.98;0.80;;;20.50;52.70;;;;;;5080593;28;20107;-64
2024/03/13 05:04:44;;;;;;;0.73;0.70;;;20.50;52.70;;;;;;5079292;28;20043;-64
2024/03/13 05:07:12;;;;;;;0.75;0.65;;;20.50;52.70;;;;;;5079307;28;20568;-64
2024/03/13 05:09:40;;;;;;;1.00;0.77;;;20.50;52.70;;;;;;5078060;28;20052;-64
2024/03/13 05:12:06;;;;;;;0.85;0.75;;;20.50;52.70;;;;;;5079053;28;20043;-64
2024/03/13 05:14:32;;;;;;;0.93;0.70;;;20.50;52.70;;;;;;5060706;28;20484;-64
2024/03/13 05:16:58;;;;;;;0.95;0.80;;;20.50;52.80;;;;;;5081649;28;20028;-64
2024/03/13 05:19:24;;;;;;;0.93;0.80;;;20.50;52.80;;;;;;5079289;28;20042;-64
2024/03/13 05:21:51;;;;;;;0.90;0.70;;;20.50;52.80;;;;;;5079981;28;20493;-63
2024/03/13 05:24:17;;;;;;;0.75;0.68;;;20.50;52.80;;;;;;5080254;28;20021;-63
2024/03/13 05:26:42;;;;;;;0.63;0.63;;;20.40;52.70;;;;;;5078998;28;20075;-63
2024/03/13 05:29:09;;;;;;;1.08;0.75;;;20.40;52.70;;;;;;5077890;28;20025;-64
2024/03/13 05:31:35;;;;;;;1.27;0.80;;;20.50;52.80;;;;;;5077463;28;20051;-62
2024/03/13 05:34:01;;;;;;;0.93;0.77;;;20.50;52.80;;;;;;5080122;28;20028;-63
2024/03/13 05:36:27;;;;;;;0.80;0.70;;;20.40;52.70;;;;;;5080677;28;20589;-62
2024/03/13 05:38:55;;;;;;;0.82;0.80;;;20.50;52.80;;;;;;5079344;28;20035;-63
2024/03/13 05:41:21;;;;;;;1.10;0.75;;;20.50;52.80;;;;;;5079418;28;20560;-64
2024/03/13 05:43:47;;;;;;;1.23;0.73;;;20.40;52.80;;;;;;5078349;28;20107;-64
2024/03/13 05:46:12;;;;;;;1.25;0.80;;;20.50;52.90;;;;;;5078533;28;20413;-64
2024/03/13 05:48:38;;;;;;;0.80;0.70;;;20.40;52.80;;;;;;5079147;28;20139;-64
2024/03/13 05:51:06;;;;;;;0.95;0.70;;;20.50;52.80;;;;;;5076613;28;20024;-64
2024/03/13 05:53:32;;;;;;;0.95;0.73;;;20.40;52.80;;;;;;5079462;28;20024;-64
2024/03/13 05:55:59;;;;;;;1.33;0.80;;;20.40;52.80;;;;;;5078781;28;20712;-64
2024/03/13 05:58:25;;;;;;;0.95;0.70;;;20.40;52.80;;;;;;5079645;28;20032;-63
2024/03/13 06:00:52;;;;;;;1.23;0.90;;;20.40;52.90;;;;;;5076956;28;20481;-63
2024/03/13 06:03:18;;;;;;;1.25;0.70;;;20.40;52.90;;;;;;5079223;28;20024;-63
2024/03/13 06:05:47;;;;;;;2.13;0.98;;;20.40;53.10;;;;;;5081209;28;20024;-63
2024/03/13 06:08:13;;;;;;;2.17;0.73;;;20.40;53.10;;;;;;5078844;28;20037;-63
2024/03/13 06:10:39;;;;;;;1.42;0.75;;;20.40;53.10;;;;;;5080319;28;20461;-64
2024/03/13 06:13:04;;;;;;;1.42;0.77;;;20.40;53.10;;;;;;5080277;28;20488;-65
2024/03/13 06:15:30;;;;;;;1.48;0.70;;;20.40;53.10;;;;;;5076431;28;20059;-64
2024/03/13 06:17:56;;;;;;;0.80;0.70;;;20.40;53.60;;;;;;5078354;28;20105;-65
2024/03/13 06:20:22;;;;;;;1.20;0.70;;;20.40;53.10;;;;;;5077284;28;20478;-64
2024/03/13 06:22:48;;;;;;;1.40;0.90;;;20.40;53.00;;;;;;5078078;28;20066;-64
2024/03/13 06:25:14;;;;;;;0.80;0.70;;;20.40;53.00;;;;;;5078383;28;20024;-64
2024/03/13 06:27:40;;;;;;;1.20;0.70;;;20.40;53.10;;;;;;5077975;28;20537;-65
2024/03/13 06:30:08;;;;;;;1.48;0.90;;;20.40;53.10;;;;;;5077236;28;20605;-65
2024/03/13 06:32:35;;;;;;;1.00;0.70;;;20.40;53.10;;;;;;5080515;28;20029;-65
2024/03/13 06:35:05;;;;;;;1.10;0.77;;;20.30;53.00;;;;;;5080020;28;20039;-64
2024/03/13 06:37:31;;;;;;;1.35;0.77;;;20.40;53.10;;;;;;5078340;28;20105;-64
2024/03/13 06:39:57;;;;;;;0.68;0.55;;;20.30;53.00;;;;;;5075918;28;20652;-64
2024/03/13 06:42:26;;;;;;;0.70;0.60;;;20.30;53.00;;;;;;5076510;28;20048;-64
2024/03/13 06:44:52;;;;;;;0.93;0.63;;;20.30;53.10;;;;;;5076654;28;20354;-64
2024/03/13 06:47:18;;;;;;;0.70;0.70;;;20.40;53.10;;;;;;5076880;28;20047;-64
2024/03/13 06:49:46;;;;;;;1.17;0.70;;;20.30;53.10;;;;;;5078907;28;20506;-64
2024/03/13 06:52:15;;;;;;;0.98;0.63;;;20.30;53.10;;;;;;5081017;28;20028;-66
2024/03/13 06:54:41;;;;;;;0.83;0.60;;;20.30;53.10;;;;;;5079964;28;20373;-66
2024/03/13 06:57:10;;;;;;;1.08;0.70;;;20.30;53.10;;;;;;5078242;28;20506;-66
2024/03/13 06:59:36;;;;;;;1.27;0.80;;;20.30;53.10;;;;;;5078954;28;20024;-66
2024/03/13 07:02:02;;;;;;;1.20;0.80;;;20.30;53.10;;;;;;5081403;28;20222;-63
2024/03/13 07:04:29;;;;;;;0.70;0.70;;;20.30;53.30;;;;;;5082253;28;20095;-64
2024/03/13 07:06:57;;;;;;;1.25;0.70;;;20.30;53.20;;;;;;5081823;28;20017;-64
2024/03/13 07:09:25;;;;;;;0.80;0.60;;;20.30;53.30;;;;;;5084414;28;20024;-64
2024/03/13 07:11:51;;;;;;;1.30;0.90;;;20.40;53.40;;;;;;5079465;28;20464;-64
2024/03/13 07:14:17;;;;;;;0.80;0.70;;;20.40;53.50;;;;;;5083727;28;20032;-64
2024/03/13 07:16:43;;;;;;;0.75;0.57;;;20.40;53.50;;;;;;5082270;28;20465;-63
2024/03/13 07:19:10;;;;;;;0.88;0.60;;;20.40;53.50;;;;;;5083619;28;20123;-64
2024/03/13 07:21:35;;;;;;;0.88;0.60;;;20.40;53.50;;;;;;5082762;28;20067;-66
2024/03/13 07:24:03;;;;;;;0.55;0.50;;;20.40;53.40;;;;;;5083049;28;20469;-67
2024/03/13 07:26:29;;;;;;;0.88;0.68;;;20.40;53.40;;;;;;5080777;28;20387;-66
2024/03/13 07:28:55;;;;;;;1.10;0.70;;;20.50;53.40;;;;;;5082090;28;20024;-67
2024/03/13 07:31:20;;;;;;;1.45;0.60;;;20.50;53.40;;;;;;5080309;28;20028;-67
2024/03/13 07:33:46;;;;;;;1.63;0.80;;;20.50;53.40;;;;;;5065687;28;20117;-67
2024/03/13 07:36:12;;;;;;;0.95;0.70;;;20.50;53.30;;;;;;5082712;28;20495;-66
2024/03/13 07:38:38;;;;;;;0.85;0.65;;;20.60;53.30;;;;;;5079388;28;20024;-67
2024/03/13 07:41:11;;;;;;;0.93;0.68;;;20.60;53.30;;;;;;5066295;28;20369;-67
2024/03/13 07:43:37;;;;;;;1.02;0.70;;;20.60;53.30;;;;;;5082709;28;20035;-67
2024/03/13 07:46:03;;;;;;;0.75;0.63;;;20.60;53.20;;;;;;5079854;28;20099;-67
2024/03/13 07:48:29;;;;;;;0.98;0.70;;;20.70;53.30;;;;;;5081939;28;20384;-66
2024/03/13 07:50:54;;;;;;;0.70;0.60;;;20.70;53.30;;;;;;5081617;28;20480;-67
2024/03/13 07:53:21;;;;;;;0.60;0.60;;;20.70;53.30;;;;;;5080107;28;20024;-67
2024/03/13 07:55:48;;;;;;;0.85;0.60;;;20.70;53.20;;;;;;5079133;28;20031;-67
2024/03/13 07:58:13;;;;;;;0.80;0.60;;;20.70;53.20;;;;;;5082231;28;20035;-67
2024/03/13 08:00:39;;;;;;;0.77;0.60;;;20.70;53.20;;;;;;5081058;28;20408;-66
2024/03/13 08:03:05;;;;;;;0.88;0.68;;;20.70;53.10;;;;;;5061189;28;20031;-64
2024/03/13 08:05:31;;;;;;;1.00;0.70;;;20.70;53.10;;;;;;5080493;28;20028;-64
2024/03/13 08:07:57;;;;;;;1.00;0.70;;;20.80;53.10;;;;;;5081450;28;20024;-63
2024/03/13 08:10:25;;;;;;;1.00;0.57;;;20.80;53.10;;;;;;5080564;28;20021;-63
2024/03/13 08:12:54;;;;;;;0.82;0.68;;;20.80;53.10;;;;;;5078581;28;20020;-65
2024/03/13 08:15:20;;;;;;;0.85;0.63;;;20.80;53.10;;;;;;5078018;28;20031;-64
2024/03/13 08:17:46;;;;;;;0.60;0.52;;;20.80;53.00;;;;;;5081640;28;20028;-64
2024/03/13 08:20:12;;;;;;;0.60;0.60;;;20.90;53.10;;;;;;5079827;28;20403;-65
2024/03/13 08:22:44;;;;;;;1.05;0.70;;;20.90;53.10;;;;;;5080425;28;20016;-65
2024/03/13 08:25:20;;;;;;;0.68;0.60;;;20.90;53.00;;;;;;5080280;28;20107;-65
2024/03/13 08:27:48;;;;;;;0.50;0.50;;;20.90;53.00;;;;;;5081125;28;20024;-64
2024/03/13 08:30:18;;;;;;;0.70;0.68;;;20.90;53.00;;;;;;5078523;28;20067;-65
2024/03/13 08:32:44;;;;;;;;;;;21.00;53.00;;;;;;5081293;28;20115;-63
2024/03/13 08:35:10;;;;;;;0.90;0.70;;;21.00;53.10;;;;;;5082196;28;20296;-63
2024/03/13 08:37:36;;;;;;;0.88;0.60;;;21.00;53.00;;;;;;5081079;28;20460;-63
2024/03/13 08:40:06;;;;;;;1.45;0.80;;;21.00;53.00;;;;;;5079260;28;20028;-64
2024/03/13 08:42:32;;;;;;;1.35;0.70;;;21.00;53.00;;;;;;5082547;28;20484;-63
2024/03/13 08:44:58;;;;;;;1.10;0.70;;;21.00;53.00;;;;;;5081296;28;20024;-63
2024/03/13 08:47:26;;;;;;;0.90;0.60;;;21.00;52.90;;;;;;5078742;28;20425;-64
2024/03/13 08:49:52;;;;;;;1.27;0.70;;;21.00;52.90;;;;;;5079468;28;20388;-64
2024/03/13 08:52:18;;;;;;;0.90;0.65;;;21.10;52.90;;;;;;5081260;28;20025;-64
2024/03/13 08:54:44;;;;;;;0.90;0.60;;;21.10;52.90;;;;;;5080518;28;20020;-62
2024/03/13 08:57:09;;;;;;;1.00;0.60;;;21.10;52.90;;;;;;5083558;28;20047;-62
2024/03/13 08:59:35;;;;;;;1.25;0.73;;;21.10;52.80;;;;;;5082214;28;20159;-63
2024/03/13 09:02:05;;;;;;;0.88;0.60;;;21.10;52.90;;;;;;5079401;28;20127;-66
2024/03/13 09:04:33;;;;;;;0.65;0.60;;;21.10;52.80;;;;;;5079490;28;20544;-67
2024/03/13 09:07:00;;;;;;;0.95;0.60;;;21.10;52.80;;;;;;5078132;28;20380;-67
2024/03/13 09:09:30;;;;;;;0.55;0.55;;;21.20;52.80;;;;;;5079196;28;20570;-67
2024/03/13 09:11:56;;;;;;;0.60;0.60;;;21.20;52.80;;;;;;5080965;28;20016;-67
2024/03/13 09:14:24;;;;;;;0.60;0.60;;;21.20;52.80;;;;;;5081271;28;20028;-67
2024/03/13 09:16:50;;;;;;;1.05;0.60;;;21.20;52.70;;;;;;5079653;28;20025;-67
2024/03/13 09:19:16;;;;;;;0.60;0.60;;;21.20;52.70;;;;;;5077199;28;20345;-66
2024/03/13 09:21:46;;;;;;;0.60;0.50;;;21.20;52.70;;;;;;5078073;28;20016;-66
2024/03/13 09:24:11;;;;;;;;;;;21.20;52.70;;;;;;5080119;28;20480;-64
2024/03/13 09:26:38;;;;;;;0.75;0.65;;;21.20;52.60;;;;;;5079723;28;20017;-63
2024/03/13 09:29:04;;;;;;;1.45;0.68;;;21.30;52.70;;;;;;5079946;28;20028;-63
2024/03/13 09:31:30;;;;;;;1.10;0.80;;;21.30;52.70;;;;;;5078246;28;20054;-64
2024/03/13 09:33:56;;;;;;;1.10;0.60;;;21.30;52.70;;;;;;5078583;28;20090;-62
2024/03/13 09:36:21;;;;;;;0.57;0.50;;;21.30;52.60;;;;;;5094624;28;20028;-64
2024/03/13 09:38:52;;;;;;;0.80;0.60;;;21.30;52.50;;;;;;5078803;28;20048;-63
2024/03/13 09:41:18;;;;;;;0.80;0.60;;;21.30;52.60;;;;;;5063134;28;20103;-62
2024/03/13 09:43:45;;;;;;;0.60;0.60;;;21.30;52.50;;;;;;5080713;28;20173;-62
2024/03/13 09:46:13;;;;;;;0.60;0.50;;;21.40;52.60;;;;;;5078086;28;20494;-63
2024/03/13 09:48:42;;;;;;;0.88;0.60;;;21.30;52.50;;;;;;5080343;28;20032;-63
2024/03/13 09:51:08;;;;;;;0.60;0.60;;;21.40;52.50;;;;;;5081478;28;20388;-63
2024/03/13 09:53:40;;;;;;;0.77;0.60;;;21.40;52.50;;;;;;5079354;28;20043;-63
2024/03/13 09:56:13;;;;;;;0.60;0.60;;;21.40;52.50;;;;;;5078575;28;20388;-63
2024/03/13 09:58:43;;;;;;;0.55;0.50;;;21.40;52.40;;;;;;5077895;28;20118;-64
2024/03/13 10:01:09;;;;;;;;;;;21.40;52.40;;;;;;5076105;28;20488;-63
2024/03/13 10:03:36;;;;;;;;;;;21.40;52.30;;;;;;5080958;28;19912;-63
2024/03/13 10:06:05;;;;;;;;;;;21.40;52.30;;;;;;5079893;28;19923;-64
2024/03/13 10:08:32;;;;;;;;;;;21.50;52.30;;;;;;5079312;28;19912;-63
2024/03/13 10:11:00;;;;;;;;;;;21.50;52.20;;;;;;5079174;28;20881;-64
2024/03/13 10:13:30;;;;;;;;;;;21.50;52.20;;;;;;5080242;28;19904;-64
2024/03/13 10:15:57;;;;;;;;;;;21.50;52.20;;;;;;5080404;28;19911;-63
2024/03/13 10:18:24;;;;;;;;;;;21.50;52.10;;;;;;5080120;28;20005;-62
2024/03/13 10:20:50;;;;;;;;;;;21.50;52.10;;;;;;5078364;28;19912;-63
2024/03/13 10:23:17;;;;;;;;;;;21.50;52.10;;;;;;5080586;28;19908;-63
2024/03/13 10:25:44;;;;;;;;;;;21.50;52.40;;;;;;5080900;28;19908;-63
2024/03/13 10:28:13;;;;;;;;;;;21.60;52.30;;;;;;5081887;28;19908;-64
2024/03/13 10:30:39;;;;;;;;;;;21.60;52.30;;;;;;5078991;28;19995;-63
2024/03/13 10:33:05;;;;;;;;;;;21.60;52.30;;;;;;5079669;28;20003;-62
2024/03/13 10:35:30;;;;;;;;;;;21.70;52.30;;;;;;5079428;28;19915;-63
2024/03/13 10:37:57;;;;;;;;;;;21.70;52.10;;;;;;5078213;28;19916;-64
2024/03/13 10:40:24;;;;;;;;;;;21.70;52.00;;;;;;5078759;28;19954;-63
2024/03/13 10:42:50;;;;;;;;;;;21.80;52.00;;;;;;5079527;28;19911;-63
2024/03/13 10:45:16;;;;;;;;;;;21.80;51.90;;;;;;5093567;28;19912;-64
2024/03/13 10:47:42;;;;;;;;;;;21.80;51.70;;;;;;5077542;28;19953;-64
2024/03/13 10:50:12;;;;;;;;;;;21.90;51.70;;;;;;5060408;28;20376;-64
2024/03/13 10:52:39;;;;;;;;;;;21.90;51.70;;;;;;5078633;28;20399;-62
2024/03/13 10:55:06;;;;;;;;;;;22.00;51.60;;;;;;5081095;28;19958;-63
2024/03/13 10:57:31;;;;;;;;;;;22.10;51.50;;;;;;5079620;28;20346;-64
2024/03/13 10:59:57;;;;;;;;;;;22.20;51.40;;;;;;5079828;28;19908;-63
2024/03/13 11:02:23;;;;;;;;;;;22.20;51.40;;;;;;5074822;28;19943;-63
2024/03/13 11:04:49;;;;;;;;;;;22.30;51.30;;;;;;5078107;28;19923;-62
2024/03/13 11:07:18;;;;;;;;;;;22.40;51.10;;;;;;5078418;28;20391;-64
2024/03/13 11:09:44;;;;;;;;;;;22.60;50.80;;;;;;5080546;28;19904;-62
2024/03/13 11:12:19;;;;;;;;;;;22.60;50.70;;;;;;5076454;28;19911;-64
2024/03/13 11:14:52;;;;;;;;;;;22.70;50.90;;;;;;5081723;28;19903;-62
2024/03/13 11:17:22;;;;;;;;;;;22.70;50.60;;;;;;5076657;28;19912;-63
2024/03/13 11:20:01;;;;;;;;;;;22.70;50.50;;;;;;5078983;28;20414;-63
2024/03/13 11:22:30;;;;;;;;;;;22.70;50.30;;;;;;5075920;28;19916;-66
2024/03/13 11:24:55;;;;;;;;;;;22.70;50.30;;;;;;5076362;28;20380;-67
2024/03/13 11:27:23;;;;;;;;;;;22.70;50.40;;;;;;5081680;28;19904;-67
2024/03/13 11:29:48;;;;;;;;;;;22.70;50.20;;;;;;5094887;28;20050;-66
2024/03/13 11:32:14;;;;;;;;;;;22.70;50.30;;;;;;5077873;28;19939;-67
2024/03/13 11:34:43;;;;;;;;;;;22.60;50.10;;;;;;5061437;28;19904;-67
2024/03/13 11:37:10;;;;;;;;;;;22.70;50.10;;;;;;5081534;28;19908;-66
2024/03/13 11:39:40;;;;;;;;;;;22.60;50.10;;;;;;5079052;28;19912;-66
2024/03/13 11:42:12;;;;;;;;;;;22.70;50.20;;;;;;5059332;28;20364;-66
2024/03/13 11:44:42;;;;;;;;;;;22.60;50.10;;;;;;5095136;28;20352;-67
2024/03/13 11:47:11;;;;;;;;;;;22.60;50.10;;;;;;5080483;28;19909;-67
2024/03/13 11:49:37;;;;;;;;;;;22.60;50.00;;;;;;5082535;28;20245;-66
2024/03/13 11:52:03;;;;;;;;;;;22.60;50.00;;;;;;5082885;28;20264;-66
2024/03/13 11:54:32;;;;;;;;;;;22.60;50.10;;;;;;5082780;28;19931;-66
2024/03/13 11:57:04;;;;;;;;;;;22.60;50.10;;;;;;5082297;28;20391;-67
2024/03/13 11:59:49;;;;;;;;;;;22.60;50.10;;;;;;5081425;28;19947;-67
2024/03/13 12:02:41;;;;;;;;;;;22.60;50.10;;;;;;5079691;28;19914;-67
2024/03/13 12:05:07;;;;;;;;;;;22.60;50.10;;;;;;5058347;28;19983;-64
2024/03/13 12:07:36;;;;;;;;;;;22.70;50.00;;;;;;5081950;28;19948;-64
2024/03/13 12:10:02;;;;;;;;;;;22.60;50.10;;;;;;5063574;28;19911;-64
2024/03/13 12:12:28;;;;;;;;;;;22.60;50.10;;;;;;5081470;28;19908;-65
2024/03/13 12:14:55;;;;;;;;;;;22.60;50.00;;;;;;5080244;28;19958;-64
2024/03/13 12:17:20;;;;;;;;;;;22.60;50.10;;;;;;5081012;28;19913;-65
2024/03/13 12:19:47;;;;;;;;;;;22.60;50.10;;;;;;5084519;28;19919;-64
2024/03/13 12:22:13;;;;;;;;;;;22.60;50.20;;;;;;5079920;28;19984;-64
2024/03/13 12:24:39;;;;;;;;;;;22.60;50.20;;;;;;5083186;28;19904;-64
2024/03/13 12:27:07;;;;;;;;;;;22.60;50.10;;;;;;5080110;28;19919;-63
2024/03/13 12:29:37;;;;;;;;;;;22.60;50.20;;;;;;5080978;28;20252;-64
2024/03/13 12:32:03;;;;;;;;;;;22.60;50.20;;;;;;5079996;28;20428;-64
2024/03/13 12:34:28;;;;;;;;;;;22.60;50.30;;;;;;5081023;28;20011;-66
2024/03/13 12:36:56;;;;;;;;;;;22.60;50.30;;;;;;5081666;28;19909;-66
2024/03/13 12:39:22;;;;;;;;;;;22.60;50.40;;;;;;5082303;28;20376;-67
2024/03/13 12:41:48;;;;;;;;;;;22.60;50.40;;;;;;5097232;28;19908;-66
2024/03/13 12:44:15;;;;;;;;;;;22.60;50.40;;;;;;5081395;28;19943;-67
2024/03/13 12:46:41;;;;;;;;;;;22.60;50.50;;;;;;5079401;28;19962;-66
2024/03/13 12:49:12;;;;;;;;;;;22.60;50.60;;;;;;5079540;28;19908;-67
2024/03/13 12:51:41;;;;;;;;;;;22.60;50.50;;;;;;5081290;28;19908;-67
2024/03/13 12:54:10;;;;;;;;;;;22.60;50.60;;;;;;5063134;28;19919;-67
2024/03/13 12:56:35;;;;;;;;;;;22.60;50.70;;;;;;5080958;28;19904;-66
2024/03/13 12:59:01;;;;;;;;;;;22.60;50.70;;;;;;5080247;28;19954;-66
2024/03/13 13:01:27;;;;;;;;;;;22.60;50.60;;;;;;5080115;28;20062;-67
2024/03/13 13:03:53;;;;;;;;;;;22.60;50.80;;;;;;5079312;28;20276;-64
2024/03/13 13:06:18;;;;;;;;;;;22.60;50.90;;;;;;5094424;28;20260;-63
2024/03/13 13:08:48;;;;;;;;;;;22.60;50.70;;;;;;5083677;28;19904;-63
2024/03/13 13:11:14;;;;;;;;;;;22.60;50.80;;;;;;5079642;28;20547;-64
2024/03/13 13:13:40;;;;;;;;;;;22.60;50.80;;;;;;5081696;28;20034;-65
2024/03/13 13:16:09;;;;;;;;;;;22.50;50.80;;;;;;5082365;28;19912;-63
2024/03/13 13:18:42;;;;;;;;;;;22.60;51.10;;;;;;5079250;28;19924;-64
2024/03/13 13:21:09;;;;;;;;;;;22.60;51.30;;;;;;5081305;28;20320;-63
2024/03/13 13:23:37;;;;;;;;;;;22.60;51.10;;;;;;5081557;28;19908;-63
2024/03/13 13:26:03;;;;;;;;;;;22.60;51.00;;;;;;5080849;28;19950;-63
2024/03/13 13:28:29;;;;;;;;;;;22.60;50.90;;;;;;5080110;28;19946;-63